createdAt,value
2019-05-06T00:00:05.301Z,4.57
2019-05-06T00:01:05.456Z,4.51
2019-05-06T00:02:05.623Z,4.49
2019-05-06T00:03:06.563Z,4.39
2019-05-06T00:04:06.553Z,4.34
2019-05-06T00:05:07.151Z,4.21
2019-05-06T00:06:06.402Z,4.25
2019-05-06T00:07:07.059Z,4.28
2019-05-06T00:08:06.672Z,4.44
2019-05-06T00:09:06.805Z,4.47
2019-05-06T00:10:07.049Z,4.44
2019-05-06T00:11:07.563Z,4.36
2019-05-06T00:12:08.053Z,4.35
2019-05-06T00:13:07.568Z,4.14
2019-05-06T00:14:07.735Z,4.00
2019-05-06T00:15:07.911Z,4.13
2019-05-06T00:16:09.053Z,4.26
2019-05-06T00:17:09.049Z,4.44
2019-05-06T00:18:08.438Z,4.43
2019-05-06T00:19:08.606Z,4.28
2019-05-06T00:20:09.551Z,4.25
2019-05-06T00:21:09.557Z,4.16
2019-05-06T00:22:10.054Z,4.11
2019-05-06T00:23:09.323Z,4.11
2019-05-06T00:24:09.520Z,4.14
2019-05-06T00:25:09.687Z,4.02
2019-05-06T00:26:09.842Z,4.06
2019-05-06T00:27:10.005Z,4.02
2019-05-06T00:28:10.195Z,4.04
2019-05-06T00:29:10.397Z,3.99
2019-05-06T00:30:10.586Z,3.96
2019-05-06T00:31:14.033Z,3.78
2019-05-06T00:32:14.946Z,3.75
2019-05-06T00:33:11.035Z,3.81
2019-05-06T00:34:11.240Z,3.72
2019-05-06T00:35:11.434Z,3.77
2019-05-06T00:36:11.604Z,3.82
2019-05-06T00:37:11.789Z,3.89
2019-05-06T00:38:13.888Z,3.80
2019-05-06T00:39:12.252Z,3.71
2019-05-06T00:40:14.057Z,3.72
2019-05-06T00:41:14.367Z,3.67
2019-05-06T00:42:13.928Z,3.54
2019-05-06T00:43:14.084Z,3.53
2019-05-06T00:44:14.379Z,3.62
2019-05-06T00:45:14.268Z,3.63
2019-05-06T00:46:14.054Z,3.70
2019-05-06T00:47:13.641Z,3.74
2019-05-06T00:48:14.829Z,3.70
2019-05-06T00:49:14.555Z,3.64
2019-05-06T00:50:14.327Z,3.60
2019-05-06T00:51:16.055Z,3.60
2019-05-06T00:52:15.056Z,3.54
2019-05-06T00:53:14.725Z,3.50
2019-05-06T00:54:14.895Z,3.50
2019-05-06T00:55:15.081Z,3.49
2019-05-06T00:56:15.260Z,3.42
2019-05-06T00:57:16.060Z,3.39
2019-05-06T00:58:15.578Z,3.26
2019-05-06T00:59:16.553Z,3.16
2019-05-06T01:00:16.064Z,3.19
2019-05-06T01:01:25.915Z,3.15
2019-05-06T01:02:18.344Z,3.08
2019-05-06T01:03:16.463Z,3.17
2019-05-06T01:04:16.686Z,3.15
2019-05-06T01:05:16.888Z,3.26
2019-05-06T01:06:17.071Z,3.34
2019-05-06T01:07:17.272Z,3.35
2019-05-06T01:08:17.436Z,3.30
2019-05-06T01:09:17.650Z,3.35
2019-05-06T01:10:17.846Z,3.37
2019-05-06T01:11:18.005Z,3.41
2019-05-06T01:12:18.210Z,3.37
2019-05-06T01:13:18.376Z,3.37
2019-05-06T01:14:19.068Z,3.41
2019-05-06T01:15:18.722Z,3.39
2019-05-06T01:16:19.563Z,3.41
2019-05-06T01:17:19.080Z,3.56
2019-05-06T01:18:19.579Z,3.49
2019-05-06T01:19:19.477Z,3.37
2019-05-06T01:20:19.633Z,3.33
2019-05-06T01:21:19.773Z,3.31
2019-05-06T01:22:20.555Z,3.33
2019-05-06T01:23:20.077Z,3.34
2019-05-06T01:24:20.222Z,3.41
2019-05-06T01:25:20.377Z,3.34
2019-05-06T01:26:20.520Z,3.30
2019-05-06T01:27:20.690Z,3.31
2019-05-06T01:28:20.850Z,3.28
2019-05-06T01:29:21.026Z,3.31
2019-05-06T01:30:24.238Z,3.46
2019-05-06T01:31:21.292Z,3.44
2019-05-06T01:32:23.525Z,3.44
2019-05-06T01:33:21.684Z,3.39
2019-05-06T01:34:21.861Z,3.46
2019-05-06T01:35:22.017Z,3.42
2019-05-06T01:36:22.152Z,3.37
2019-05-06T01:37:24.363Z,3.44
2019-05-06T01:38:24.274Z,3.37
2019-05-06T01:39:24.424Z,3.31
2019-05-06T01:40:23.894Z,3.23
2019-05-06T01:41:24.570Z,3.26
2019-05-06T01:42:24.578Z,3.25
2019-05-06T01:43:24.161Z,3.28
2019-05-06T01:44:24.545Z,3.12
2019-05-06T01:45:23.822Z,3.25
2019-05-06T01:46:24.955Z,3.19
2019-05-06T01:47:24.206Z,3.17
2019-05-06T01:48:24.558Z,3.12
2019-05-06T01:49:26.071Z,3.02
2019-05-06T01:50:25.065Z,3.08
2019-05-06T01:51:24.954Z,3.02
2019-05-06T01:52:25.166Z,3.08
2019-05-06T01:53:26.059Z,3.19
2019-05-06T01:54:25.540Z,3.12
2019-05-06T01:55:25.682Z,3.01
2019-05-06T01:56:25.828Z,3.01
2019-05-06T01:57:25.991Z,3.07
2019-05-06T01:58:26.133Z,2.99
2019-05-06T01:59:27.058Z,3.07
2019-05-06T02:00:26.407Z,3.04
2019-05-06T02:01:26.553Z,3.13
2019-05-06T02:02:26.712Z,3.04
2019-05-06T02:03:26.870Z,2.97
2019-05-06T02:04:27.020Z,3.01
2019-05-06T02:05:27.161Z,2.92
2019-05-06T02:06:27.301Z,2.98
2019-05-06T02:07:27.575Z,2.83
2019-05-06T02:08:27.620Z,2.94
2019-05-06T02:09:27.774Z,2.94
2019-05-06T02:10:28.552Z,2.89
2019-05-06T02:11:28.183Z,2.92
2019-05-06T02:12:28.369Z,2.81
2019-05-06T02:13:28.543Z,2.76
2019-05-06T02:14:28.730Z,2.68
2019-05-06T02:15:28.889Z,2.66
2019-05-06T02:16:29.568Z,2.65
2019-05-06T02:17:29.225Z,2.73
2019-05-06T02:18:29.369Z,2.73
2019-05-06T02:19:29.531Z,2.80
2019-05-06T02:20:29.667Z,2.71
2019-05-06T02:21:29.788Z,2.69
2019-05-06T02:22:29.911Z,2.63
2019-05-06T02:23:30.037Z,2.63
2019-05-06T02:24:30.189Z,2.62
2019-05-06T02:25:30.304Z,2.53
2019-05-06T02:26:30.446Z,2.50
2019-05-06T02:27:30.627Z,2.47
2019-05-06T02:28:30.750Z,2.53
2019-05-06T02:29:30.919Z,2.41
2019-05-06T02:30:31.058Z,2.37
2019-05-06T02:31:31.211Z,2.40
2019-05-06T02:32:31.944Z,2.44
2019-05-06T02:33:31.566Z,2.53
2019-05-06T02:34:31.731Z,2.62
2019-05-06T02:35:34.754Z,2.65
2019-05-06T02:36:34.454Z,2.63
2019-05-06T02:37:34.959Z,2.79
2019-05-06T02:38:39.740Z,2.80
2019-05-06T02:39:34.714Z,2.87
2019-05-06T02:40:33.823Z,2.80
2019-05-06T02:41:33.838Z,2.71
2019-05-06T02:42:35.067Z,2.84
2019-05-06T02:43:34.726Z,2.81
2019-05-06T02:44:34.508Z,2.90
2019-05-06T02:45:33.823Z,2.92
2019-05-06T02:46:34.029Z,2.89
2019-05-06T02:47:34.961Z,2.90
2019-05-06T02:48:35.070Z,2.83
2019-05-06T02:49:34.463Z,2.89
2019-05-06T02:50:34.604Z,2.79
2019-05-06T02:51:34.778Z,2.83
2019-05-06T02:52:34.941Z,2.76
2019-05-06T02:53:35.084Z,2.92
2019-05-06T02:54:36.078Z,3.01
2019-05-06T02:55:36.267Z,3.07
2019-05-06T02:56:36.648Z,3.01
2019-05-06T02:57:36.763Z,3.02
2019-05-06T02:58:35.913Z,2.97
2019-05-06T02:59:37.074Z,2.97
2019-05-06T03:00:36.203Z,2.98
2019-05-06T03:01:36.359Z,3.02
2019-05-06T03:02:43.263Z,3.01
2019-05-06T03:03:39.559Z,2.99
2019-05-06T03:04:36.909Z,2.99
2019-05-06T03:05:38.062Z,3.01
2019-05-06T03:06:38.320Z,3.10
2019-05-06T03:07:37.841Z,3.08
2019-05-06T03:08:39.061Z,2.99
2019-05-06T03:09:37.805Z,3.08
2019-05-06T03:10:37.945Z,3.15
2019-05-06T03:11:38.135Z,3.17
2019-05-06T03:12:38.323Z,3.17
2019-05-06T03:13:38.507Z,3.16
2019-05-06T03:14:38.658Z,3.16
2019-05-06T03:15:39.808Z,3.08
2019-05-06T03:16:39.047Z,3.01
2019-05-06T03:17:39.237Z,3.02
2019-05-06T03:18:39.385Z,2.92
2019-05-06T03:19:39.530Z,2.94
2019-05-06T03:20:39.663Z,3.05
2019-05-06T03:21:39.823Z,2.97
2019-05-06T03:22:43.276Z,2.97
2019-05-06T03:23:43.322Z,2.92
2019-05-06T03:24:43.360Z,3.01
2019-05-06T03:25:43.728Z,2.92
2019-05-06T03:26:43.780Z,2.89
2019-05-06T03:27:43.889Z,2.97
2019-05-06T03:28:44.107Z,2.97
2019-05-06T03:29:44.179Z,2.90
2019-05-06T03:30:45.773Z,2.99
2019-05-06T03:31:46.250Z,2.97
2019-05-06T03:33:18.733Z,2.97
2019-05-06T03:33:58.510Z,2.87
2019-05-06T03:35:01.132Z,2.87
2019-05-06T03:36:00.715Z,2.86
2019-05-06T03:36:48.618Z,2.97
2019-05-06T03:37:44.120Z,2.86
2019-05-06T03:38:43.831Z,2.83
2019-05-06T03:39:43.508Z,2.94
2019-05-06T03:40:45.915Z,2.90
2019-05-06T03:41:44.299Z,2.86
2019-05-06T03:42:43.415Z,2.89
2019-05-06T03:43:43.814Z,2.94
2019-05-06T03:44:43.736Z,2.89
2019-05-06T03:45:43.913Z,2.94
2019-05-06T03:46:44.086Z,2.87
2019-05-06T03:47:44.260Z,3.02
2019-05-06T03:48:44.621Z,3.04
2019-05-06T03:49:44.547Z,3.02
2019-05-06T03:50:44.700Z,2.95
2019-05-06T03:51:44.875Z,3.01
2019-05-06T03:52:45.058Z,2.92
2019-05-06T03:53:46.067Z,3.07
2019-05-06T03:54:45.463Z,2.98
2019-05-06T03:55:47.192Z,2.95
2019-05-06T03:56:46.812Z,2.81
2019-05-06T03:57:46.950Z,2.83
2019-05-06T03:58:47.059Z,2.89
2019-05-06T03:59:46.337Z,2.73
2019-05-06T04:00:46.506Z,2.81
2019-05-06T04:01:46.672Z,2.80
2019-05-06T04:02:46.849Z,2.76
2019-05-06T04:03:52.273Z,2.68
2019-05-06T04:04:49.284Z,2.68
2019-05-06T04:05:47.398Z,2.63
2019-05-06T04:06:47.547Z,2.69
2019-05-06T04:07:47.705Z,2.58
2019-05-06T04:08:47.829Z,2.53
2019-05-06T04:09:48.007Z,2.51
2019-05-06T04:10:48.575Z,2.50
2019-05-06T04:11:48.356Z,2.53
2019-05-06T04:12:48.522Z,2.38
2019-05-06T04:13:48.678Z,2.44
2019-05-06T04:14:49.568Z,2.44
2019-05-06T04:15:48.973Z,2.37
2019-05-06T04:16:49.129Z,2.37
2019-05-06T04:17:49.303Z,2.41
2019-05-06T04:18:49.471Z,2.38
2019-05-06T04:19:49.616Z,2.41
2019-05-06T04:20:52.927Z,2.50
2019-05-06T04:21:53.179Z,2.32
2019-05-06T04:22:53.167Z,2.40
2019-05-06T04:23:53.490Z,2.41
2019-05-06T04:24:53.858Z,2.37
2019-05-06T04:25:52.683Z,2.38
2019-05-06T04:26:53.442Z,2.36
2019-05-06T04:27:53.765Z,2.47
2019-05-06T04:28:53.410Z,2.38
2019-05-06T04:29:54.330Z,2.32
2019-05-06T04:30:54.831Z,2.43
2019-05-06T04:31:53.940Z,2.47
2019-05-06T04:32:53.314Z,2.44
2019-05-06T04:34:08.481Z,2.50
2019-05-06T04:34:54.218Z,2.63
2019-05-06T04:35:54.249Z,2.53
2019-05-06T04:36:53.702Z,2.59
2019-05-06T04:37:53.825Z,2.61
2019-05-06T04:38:54.278Z,2.66
2019-05-06T04:39:54.046Z,2.71
2019-05-06T04:40:54.089Z,2.79
2019-05-06T04:41:54.444Z,2.79
2019-05-06T04:42:53.577Z,2.86
2019-05-06T04:43:53.762Z,2.87
2019-05-06T04:44:53.936Z,2.97
2019-05-06T04:45:54.381Z,3.02
2019-05-06T04:46:54.664Z,3.15
2019-05-06T04:47:55.516Z,3.10
2019-05-06T04:48:55.085Z,3.12
2019-05-06T04:49:54.866Z,3.30
2019-05-06T04:50:54.994Z,3.39
2019-05-06T04:51:55.168Z,3.30
2019-05-06T04:52:55.322Z,3.37
2019-05-06T04:53:55.469Z,3.34
2019-05-06T04:54:55.604Z,3.59
2019-05-06T04:55:55.762Z,3.64
2019-05-06T04:56:55.920Z,3.68
2019-05-06T04:57:56.051Z,3.93
2019-05-06T04:58:56.189Z,3.96
2019-05-06T04:59:56.332Z,4.06
2019-05-06T05:00:56.490Z,4.06
2019-05-06T05:01:56.659Z,3.98
2019-05-06T05:02:56.795Z,3.99
2019-05-06T05:03:56.925Z,4.16
2019-05-06T05:04:57.071Z,4.17
2019-05-06T05:05:57.222Z,4.14
2019-05-06T05:06:57.426Z,4.24
2019-05-06T05:07:57.594Z,4.21
2019-05-06T05:08:57.760Z,4.20
2019-05-06T05:09:57.911Z,4.35
2019-05-06T05:10:58.065Z,4.32
2019-05-06T05:11:58.246Z,4.36
2019-05-06T05:12:58.420Z,4.36
2019-05-06T05:13:58.590Z,4.39
2019-05-06T05:14:58.758Z,4.39
2019-05-06T05:15:58.925Z,4.44
2019-05-06T05:16:59.085Z,4.53
2019-05-06T05:17:59.254Z,4.51
2019-05-06T05:18:59.416Z,4.74
2019-05-06T05:20:02.023Z,4.83
2019-05-06T05:20:59.711Z,4.80
2019-05-06T05:21:59.829Z,4.79
2019-05-06T05:22:59.990Z,4.80
2019-05-06T05:24:01.989Z,4.83
2019-05-06T05:25:03.283Z,4.75
2019-05-06T05:26:02.722Z,4.83
2019-05-06T05:27:03.026Z,4.84
2019-05-06T05:28:02.211Z,4.84
2019-05-06T05:29:02.862Z,4.87
2019-05-06T05:30:02.318Z,4.84
2019-05-06T05:31:03.033Z,4.84
2019-05-06T05:32:02.198Z,4.83
2019-05-06T05:33:02.903Z,4.87
2019-05-06T05:34:02.294Z,4.74
2019-05-06T05:35:03.350Z,4.75
2019-05-06T05:36:02.599Z,4.83
2019-05-06T05:37:03.573Z,4.74
2019-05-06T05:38:03.113Z,4.75
2019-05-06T05:39:04.191Z,4.72
2019-05-06T05:40:03.405Z,4.65
2019-05-06T05:41:03.559Z,4.68
2019-05-06T05:42:03.701Z,4.62
2019-05-06T05:43:03.843Z,4.67
2019-05-06T05:44:03.978Z,4.64
2019-05-06T05:45:04.123Z,4.61
2019-05-06T05:46:04.286Z,4.71
2019-05-06T05:47:04.423Z,4.69
2019-05-06T05:48:04.542Z,4.65
2019-05-06T05:49:04.686Z,4.69
2019-05-06T05:50:04.829Z,4.83
2019-05-06T05:51:04.989Z,4.84
2019-05-06T05:52:06.123Z,4.86
2019-05-06T05:53:05.349Z,4.90
2019-05-06T05:54:05.492Z,4.97
2019-05-06T05:55:05.642Z,5.04
2019-05-06T05:56:05.810Z,5.12
2019-05-06T05:57:05.982Z,5.26
2019-05-06T05:58:07.075Z,5.30
2019-05-06T05:59:06.297Z,5.49
2019-05-06T06:00:07.425Z,5.62
2019-05-06T06:01:06.573Z,5.58
2019-05-06T06:02:06.725Z,5.62
2019-05-06T06:03:07.446Z,5.65
2019-05-06T06:04:07.999Z,5.75
2019-05-06T06:05:07.133Z,5.74
2019-05-06T06:06:07.310Z,5.83
2019-05-06T06:07:07.475Z,5.70
2019-05-06T06:08:07.607Z,5.67
2019-05-06T06:09:07.744Z,5.80
2019-05-06T06:10:07.931Z,5.84
2019-05-06T06:11:08.106Z,5.78
2019-05-06T06:12:08.289Z,5.84
2019-05-06T06:13:08.438Z,5.95
2019-05-06T06:14:08.584Z,5.88
2019-05-06T06:15:08.733Z,5.81
2019-05-06T06:16:08.874Z,5.74
2019-05-06T06:17:09.049Z,5.70
2019-05-06T06:18:09.183Z,5.59
2019-05-06T06:19:09.307Z,5.49
2019-05-06T06:20:09.451Z,5.52
2019-05-06T06:21:18.809Z,5.48
2019-05-06T06:22:11.832Z,5.38
2019-05-06T06:23:10.876Z,5.37
2019-05-06T06:24:09.995Z,5.40
2019-05-06T06:25:13.997Z,5.55
2019-05-06T06:26:12.136Z,5.42
2019-05-06T06:27:12.451Z,5.51
2019-05-06T06:28:11.948Z,5.58
2019-05-06T06:29:12.489Z,5.80
2019-05-06T06:30:12.816Z,5.96
2019-05-06T06:31:12.041Z,6.16
2019-05-06T06:32:13.784Z,6.14
2019-05-06T06:33:12.959Z,6.06
2019-05-06T06:34:13.003Z,6.11
2019-05-06T06:35:14.714Z,6.14
2019-05-06T06:36:13.047Z,6.36
2019-05-06T06:37:13.247Z,6.13
2019-05-06T06:38:13.459Z,6.32
2019-05-06T06:39:13.089Z,6.45
2019-05-06T06:40:13.577Z,6.39
2019-05-06T06:41:12.823Z,6.40
2019-05-06T06:42:12.988Z,6.61
2019-05-06T06:43:13.123Z,6.53
2019-05-06T06:44:13.353Z,6.61
2019-05-06T06:45:14.355Z,6.58
2019-05-06T06:46:13.589Z,6.61
2019-05-06T06:47:13.704Z,6.72
2019-05-06T06:48:13.942Z,6.78
2019-05-06T06:49:14.231Z,6.90
2019-05-06T06:50:14.336Z,6.93
2019-05-06T06:51:14.475Z,7.07
2019-05-06T06:52:15.026Z,7.12
2019-05-06T06:53:15.749Z,7.23
2019-05-06T06:54:15.996Z,7.16
2019-05-06T06:55:15.096Z,7.15
2019-05-06T06:56:15.221Z,7.09
2019-05-06T06:57:15.479Z,7.24
2019-05-06T06:58:15.579Z,7.27
2019-05-06T06:59:15.865Z,7.19
2019-05-06T07:00:16.015Z,7.15
2019-05-06T07:01:16.166Z,7.26
2019-05-06T07:02:16.326Z,7.30
2019-05-06T07:03:16.501Z,7.44
2019-05-06T07:04:16.621Z,7.45
2019-05-06T07:05:25.507Z,7.47
2019-05-06T07:06:18.982Z,7.42
2019-05-06T07:07:17.182Z,7.58
2019-05-06T07:08:31.381Z,7.54
2019-05-06T07:09:18.457Z,7.54
2019-05-06T07:10:17.696Z,7.62
2019-05-06T07:11:18.086Z,7.74
2019-05-06T07:12:18.036Z,7.71
2019-05-06T07:13:18.099Z,7.66
2019-05-06T07:14:18.253Z,7.50
2019-05-06T07:15:18.390Z,7.69
2019-05-06T07:16:20.710Z,7.91
2019-05-06T07:17:19.581Z,8.06
2019-05-06T07:18:18.828Z,8.14
2019-05-06T07:19:18.982Z,8.13
2019-05-06T07:20:19.103Z,8.21
2019-05-06T07:21:19.289Z,8.10
2019-05-06T07:22:19.435Z,8.12
2019-05-06T07:23:19.611Z,7.96
2019-05-06T07:24:22.672Z,7.99
2019-05-06T07:25:22.116Z,8.04
2019-05-06T07:26:20.255Z,8.02
2019-05-06T07:27:22.426Z,7.99
2019-05-06T07:28:22.807Z,8.06
2019-05-06T07:29:25.792Z,8.04
2019-05-06T07:30:23.079Z,8.21
2019-05-06T07:31:26.382Z,8.34
2019-05-06T07:32:23.240Z,8.39
2019-05-06T07:33:23.068Z,8.49
2019-05-06T07:34:22.959Z,8.52
2019-05-06T07:35:37.428Z,8.58
2019-05-06T07:36:24.045Z,8.71
2019-05-06T07:37:22.303Z,8.68
2019-05-06T07:38:23.536Z,8.71
2019-05-06T07:39:24.230Z,8.88
2019-05-06T07:40:24.575Z,8.86
2019-05-06T07:41:23.565Z,8.75
2019-05-06T07:42:24.284Z,8.78
2019-05-06T07:43:23.415Z,8.73
2019-05-06T07:44:23.549Z,8.65
2019-05-06T07:45:23.710Z,8.82
2019-05-06T07:46:23.885Z,8.82
2019-05-06T07:47:24.109Z,8.94
2019-05-06T07:48:24.266Z,9.10
2019-05-06T07:49:24.428Z,9.13
2019-05-06T07:50:24.618Z,9.10
2019-05-06T07:51:24.749Z,9.23
2019-05-06T07:52:24.887Z,9.10
2019-05-06T07:53:25.045Z,8.80
2019-05-06T07:54:25.184Z,8.79
2019-05-06T07:55:25.355Z,8.82
2019-05-06T07:56:25.515Z,8.96
2019-05-06T07:57:26.573Z,9.13
2019-05-06T07:58:25.809Z,9.15
2019-05-06T07:59:25.962Z,9.15
2019-05-06T08:00:26.587Z,9.13
2019-05-06T08:01:26.357Z,9.24
2019-05-06T08:02:26.514Z,9.12
2019-05-06T08:03:26.669Z,9.30
2019-05-06T08:04:26.845Z,9.50
2019-05-06T08:05:27.042Z,9.59
2019-05-06T08:06:27.207Z,9.70
2019-05-06T08:07:27.357Z,9.55
2019-05-06T08:08:27.501Z,9.49
2019-05-06T08:09:27.697Z,9.62
2019-05-06T08:10:27.885Z,9.74
2019-05-06T08:11:28.074Z,9.77
2019-05-06T08:12:28.242Z,9.95
2019-05-06T08:13:28.396Z,10.06
2019-05-06T08:14:28.558Z,10.07
2019-05-06T08:15:28.717Z,9.92
2019-05-06T08:16:28.893Z,9.83
2019-05-06T08:17:29.041Z,10.10
2019-05-06T08:18:29.184Z,10.35
2019-05-06T08:19:29.359Z,10.51
2019-05-06T08:20:29.498Z,10.39
2019-05-06T08:21:29.650Z,10.36
2019-05-06T08:22:29.820Z,10.38
2019-05-06T08:23:32.400Z,10.36
2019-05-06T08:24:30.150Z,10.62
2019-05-06T08:25:32.836Z,10.84
2019-05-06T08:26:32.294Z,10.91
2019-05-06T08:27:32.870Z,11.19
2019-05-06T08:28:38.647Z,10.98
2019-05-06T08:29:33.219Z,10.76
2019-05-06T08:30:32.435Z,10.66
2019-05-06T08:31:32.775Z,10.51
2019-05-06T08:32:32.547Z,10.47
2019-05-06T08:33:32.710Z,10.43
2019-05-06T08:34:34.261Z,10.65
2019-05-06T08:35:33.186Z,10.58
2019-05-06T08:36:33.202Z,10.58
2019-05-06T08:37:32.431Z,10.91
2019-05-06T08:38:32.744Z,11.75
2019-05-06T08:39:33.762Z,12.36
2019-05-06T08:40:33.599Z,12.92
2019-05-06T08:41:33.362Z,13.46
2019-05-06T08:42:33.310Z,13.83
2019-05-06T08:43:33.514Z,14.42
2019-05-06T08:44:33.688Z,14.66
2019-05-06T08:45:33.817Z,14.90
2019-05-06T08:46:33.968Z,15.03
2019-05-06T08:47:34.110Z,14.46
2019-05-06T08:48:34.261Z,14.49
2019-05-06T08:49:34.602Z,14.01
2019-05-06T08:50:34.598Z,13.96
2019-05-06T08:51:34.730Z,13.19
2019-05-06T08:52:34.875Z,12.36
2019-05-06T08:53:35.603Z,12.18
2019-05-06T08:54:35.267Z,11.44
2019-05-06T08:55:35.400Z,11.09
2019-05-06T08:56:35.542Z,10.98
2019-05-06T08:57:35.695Z,11.03
2019-05-06T08:58:35.854Z,10.57
2019-05-06T08:59:36.084Z,10.34
2019-05-06T09:00:36.262Z,10.25
2019-05-06T09:01:36.429Z,10.20
2019-05-06T09:02:36.572Z,10.09
2019-05-06T09:03:36.736Z,9.86
2019-05-06T09:04:36.924Z,9.88
2019-05-06T09:05:37.087Z,9.88
2019-05-06T09:06:37.264Z,9.95
2019-05-06T09:07:37.405Z,9.95
2019-05-06T09:08:37.568Z,9.74
2019-05-06T09:09:37.735Z,9.65
2019-05-06T09:10:37.871Z,9.75
2019-05-06T09:11:39.026Z,9.75
2019-05-06T09:12:38.263Z,9.55
2019-05-06T09:13:38.412Z,9.49
2019-05-06T09:14:38.569Z,9.63
2019-05-06T09:15:38.725Z,9.62
2019-05-06T09:16:38.869Z,9.71
2019-05-06T09:17:39.032Z,9.70
2019-05-06T09:18:39.201Z,9.80
2019-05-06T09:19:39.388Z,9.53
2019-05-06T09:20:39.523Z,10.20
2019-05-06T09:21:43.378Z,10.98
2019-05-06T09:22:42.870Z,10.95
2019-05-06T09:23:42.216Z,11.49
2019-05-06T09:24:42.470Z,12.04
2019-05-06T09:25:42.323Z,12.63
2019-05-06T09:26:42.945Z,13.03
2019-05-06T09:27:42.206Z,13.17
2019-05-06T09:28:42.662Z,13.53
2019-05-06T09:29:42.938Z,13.96
2019-05-06T09:30:43.169Z,14.20
2019-05-06T09:31:42.710Z,14.42
2019-05-06T09:32:42.981Z,14.45
2019-05-06T09:33:42.722Z,14.61
2019-05-06T09:34:43.038Z,14.90
2019-05-06T09:35:43.045Z,15.07
2019-05-06T09:36:51.509Z,15.18
2019-05-06T09:37:44.348Z,15.51
2019-05-06T09:38:42.625Z,15.77
2019-05-06T09:39:43.224Z,15.78
2019-05-06T09:40:43.963Z,15.53
2019-05-06T09:41:47.419Z,16.11
2019-05-06T09:42:45.336Z,16.51
2019-05-06T09:43:43.610Z,16.69
2019-05-06T09:44:43.751Z,16.22
2019-05-06T09:45:43.912Z,16.18
2019-05-06T09:46:44.044Z,15.56
2019-05-06T09:47:44.224Z,15.01
2019-05-06T09:48:44.380Z,14.63
2019-05-06T09:49:44.536Z,14.21
2019-05-06T09:50:46.152Z,14.04
2019-05-06T09:51:45.895Z,14.39
2019-05-06T09:52:45.175Z,14.72
2019-05-06T09:53:45.340Z,14.87
2019-05-06T09:54:46.115Z,14.57
2019-05-06T09:55:45.624Z,14.41
2019-05-06T09:56:45.811Z,14.27
2019-05-06T09:57:46.011Z,14.04
2019-05-06T09:58:47.109Z,13.79
2019-05-06T09:59:47.104Z,13.57
2019-05-06T10:00:46.610Z,13.25
2019-05-06T10:01:46.770Z,12.95
2019-05-06T10:02:49.476Z,12.69
2019-05-06T10:03:48.137Z,12.76
2019-05-06T10:04:47.274Z,13.17
2019-05-06T10:05:47.429Z,13.71
2019-05-06T10:06:56.355Z,14.19
2019-05-06T10:07:49.718Z,14.64
2019-05-06T10:08:47.943Z,14.86
2019-05-06T10:09:48.142Z,15.13
2019-05-06T10:10:56.933Z,15.31
2019-05-06T10:11:52.425Z,15.28
2019-05-06T10:12:48.647Z,15.28
2019-05-06T10:13:48.812Z,15.68
2019-05-06T10:14:48.959Z,15.73
2019-05-06T10:15:49.108Z,15.98
2019-05-06T10:16:52.224Z,16.32
2019-05-06T10:17:52.036Z,16.45
2019-05-06T10:18:49.613Z,16.78
2019-05-06T10:19:49.766Z,16.99
2019-05-06T10:20:49.949Z,16.99
2019-05-06T10:21:50.117Z,16.17
2019-05-06T10:22:52.367Z,14.87
2019-05-06T10:23:52.858Z,14.41
2019-05-06T10:24:52.271Z,13.86
2019-05-06T10:25:52.299Z,13.63
2019-05-06T10:26:52.404Z,13.55
2019-05-06T10:27:52.496Z,13.46
2019-05-06T10:28:52.526Z,13.16
2019-05-06T10:29:52.186Z,13.09
2019-05-06T10:30:52.724Z,12.99
2019-05-06T10:31:52.452Z,12.94
2019-05-06T10:32:53.619Z,13.10
2019-05-06T10:33:53.134Z,13.09
2019-05-06T10:34:53.399Z,12.98
2019-05-06T10:35:53.007Z,12.79
2019-05-06T10:36:53.746Z,12.56
2019-05-06T10:37:52.906Z,12.81
2019-05-06T10:38:53.621Z,13.25
2019-05-06T10:39:53.623Z,13.72
2019-05-06T10:41:02.887Z,14.09
2019-05-06T10:41:55.555Z,14.60
2019-05-06T10:42:53.688Z,14.90
2019-05-06T10:43:53.856Z,15.03
2019-05-06T10:44:54.041Z,14.91
2019-05-06T10:45:54.210Z,14.95
2019-05-06T10:46:54.447Z,14.97
2019-05-06T10:47:54.619Z,14.83
2019-05-06T10:48:54.818Z,14.95
2019-05-06T10:49:54.993Z,14.95
2019-05-06T10:50:55.137Z,15.12
2019-05-06T10:51:55.356Z,15.01
2019-05-06T10:52:55.515Z,15.20
2019-05-06T10:53:55.680Z,14.86
2019-05-06T10:54:55.856Z,14.53
2019-05-06T10:55:56.040Z,14.39
2019-05-06T10:56:57.373Z,14.19
2019-05-06T10:57:57.364Z,13.83
2019-05-06T10:58:56.499Z,13.51
2019-05-06T10:59:56.689Z,13.38
2019-05-06T11:00:56.852Z,13.19
2019-05-06T11:01:57.026Z,13.54
2019-05-06T11:02:57.174Z,13.53
2019-05-06T11:03:57.344Z,13.43
2019-05-06T11:04:58.154Z,13.47
2019-05-06T11:05:57.643Z,13.46
2019-05-06T11:06:57.795Z,13.83
2019-05-06T11:07:57.897Z,14.41
2019-05-06T11:08:58.022Z,14.74
2019-05-06T11:09:58.159Z,15.07
2019-05-06T11:11:12.454Z,14.79
2019-05-06T11:12:00.450Z,14.36
2019-05-06T11:12:58.685Z,13.93
2019-05-06T11:13:58.847Z,13.91
2019-05-06T11:14:59.018Z,14.16
2019-05-06T11:16:00.152Z,14.36
2019-05-06T11:16:59.425Z,14.57
2019-05-06T11:18:04.085Z,14.90
2019-05-06T11:19:02.091Z,14.90
2019-05-06T11:19:59.881Z,14.78
2019-05-06T11:21:00.095Z,14.78
2019-05-06T11:22:03.371Z,14.95
2019-05-06T11:23:02.147Z,15.23
2019-05-06T11:24:00.641Z,15.33
2019-05-06T11:25:03.064Z,15.35
2019-05-06T11:26:03.071Z,15.35
2019-05-06T11:27:03.508Z,15.49
2019-05-06T11:28:02.960Z,15.56
2019-05-06T11:29:05.160Z,15.40
2019-05-06T11:30:02.786Z,15.15
2019-05-06T11:31:02.628Z,14.97
2019-05-06T11:32:03.089Z,14.90
2019-05-06T11:33:04.567Z,14.79
2019-05-06T11:34:03.445Z,14.66
2019-05-06T11:35:03.911Z,14.60
2019-05-06T11:36:03.738Z,14.39
2019-05-06T11:37:02.916Z,14.41
2019-05-06T11:38:03.081Z,14.30
2019-05-06T11:39:03.245Z,14.42
2019-05-06T11:40:03.380Z,14.44
2019-05-06T11:41:03.537Z,14.21
2019-05-06T11:42:23.878Z,14.24
2019-05-06T11:43:05.898Z,14.13
2019-05-06T11:44:04.125Z,14.39
2019-05-06T11:45:04.239Z,14.59
2019-05-06T11:46:04.398Z,14.05
2019-05-06T11:47:04.582Z,13.65
2019-05-06T11:48:04.706Z,13.10
2019-05-06T11:49:04.854Z,13.22
2019-05-06T11:50:05.221Z,13.16
2019-05-06T11:51:06.170Z,13.44
2019-05-06T11:52:05.296Z,13.50
2019-05-06T11:53:05.436Z,13.50
2019-05-06T11:54:16.328Z,13.51
2019-05-06T11:55:07.825Z,13.62
2019-05-06T11:56:06.149Z,13.63
2019-05-06T11:57:06.173Z,13.46
2019-05-06T11:58:07.136Z,13.53
2019-05-06T11:59:06.511Z,13.57
2019-05-06T12:00:06.655Z,13.71
2019-05-06T12:01:06.822Z,13.61
2019-05-06T12:02:06.965Z,13.61
2019-05-06T12:03:07.088Z,13.59
2019-05-06T12:04:08.342Z,13.96
2019-05-06T12:05:08.144Z,14.08
2019-05-06T12:06:07.782Z,14.20
2019-05-06T12:07:11.070Z,14.29
2019-05-06T12:08:13.696Z,14.29
2019-05-06T12:09:15.722Z,14.26
2019-05-06T12:10:09.581Z,13.80
2019-05-06T12:11:08.815Z,13.91
2019-05-06T12:12:08.952Z,14.04
2019-05-06T12:13:09.104Z,13.91
2019-05-06T12:14:12.317Z,13.86
2019-05-06T12:15:09.454Z,13.57
2019-05-06T12:16:09.589Z,13.54
2019-05-06T12:17:09.756Z,13.54
2019-05-06T12:18:09.899Z,13.46
2019-05-06T12:19:12.992Z,13.51
2019-05-06T12:20:10.268Z,13.46
2019-05-06T12:21:15.446Z,13.41
2019-05-06T12:22:12.777Z,13.21
2019-05-06T12:23:15.278Z,13.16
2019-05-06T12:24:12.227Z,12.92
2019-05-06T12:25:15.323Z,12.73
2019-05-06T12:26:13.220Z,12.54
2019-05-06T12:27:12.704Z,12.40
2019-05-06T12:28:12.619Z,12.26
2019-05-06T12:29:12.712Z,12.13
2019-05-06T12:30:12.847Z,11.85
2019-05-06T12:31:12.697Z,11.77
2019-05-06T12:32:13.171Z,11.69
2019-05-06T12:33:13.189Z,11.59
2019-05-06T12:34:14.663Z,11.63
2019-05-06T12:35:13.669Z,11.63
2019-05-06T12:36:13.645Z,11.57
2019-05-06T12:37:13.001Z,11.59
2019-05-06T12:38:26.684Z,11.77
2019-05-06T12:39:17.349Z,11.64
2019-05-06T12:40:14.520Z,11.41
2019-05-06T12:41:13.963Z,11.31
2019-05-06T12:42:14.821Z,11.28
2019-05-06T12:43:13.932Z,11.11
2019-05-06T12:44:14.117Z,11.12
2019-05-06T12:45:15.155Z,11.09
2019-05-06T12:46:14.395Z,11.28
2019-05-06T12:47:14.570Z,11.27
2019-05-06T12:48:14.771Z,11.39
2019-05-06T12:49:14.940Z,11.35
2019-05-06T12:50:15.076Z,11.48
2019-05-06T12:51:15.213Z,11.49
2019-05-06T12:52:15.346Z,11.56
2019-05-06T12:53:15.509Z,11.82
2019-05-06T12:54:15.667Z,12.05
2019-05-06T12:55:21.382Z,12.05
2019-05-06T12:56:18.074Z,12.26
2019-05-06T12:57:16.282Z,12.41
2019-05-06T12:58:20.190Z,12.71
2019-05-06T12:59:18.656Z,12.77
2019-05-06T13:00:16.858Z,12.79
2019-05-06T13:01:16.999Z,12.71
2019-05-06T13:02:17.657Z,12.62
2019-05-06T13:03:17.321Z,12.16
2019-05-06T13:04:17.497Z,11.51
2019-05-06T13:05:17.664Z,11.33
2019-05-06T13:06:17.862Z,11.11
2019-05-06T13:07:17.947Z,10.93
2019-05-06T13:08:20.772Z,10.94
2019-05-06T13:09:19.293Z,10.98
2019-05-06T13:10:18.471Z,11.09
2019-05-06T13:11:18.593Z,10.94